createdAt,value
2022-09-12T00:00:44.864Z,14.05
2022-09-12T00:03:11.895Z,13.99
2022-09-12T00:05:46.004Z,13.95
2022-09-12T00:08:14.387Z,13.90
2022-09-12T00:10:42.927Z,13.84
2022-09-12T00:13:11.362Z,13.81
2022-09-12T00:15:43.353Z,13.75
2022-09-12T00:18:14.820Z,13.77
2022-09-12T00:20:43.482Z,13.73
2022-09-12T00:23:11.111Z,13.76
2022-09-12T00:25:45.339Z,13.76
2022-09-12T00:28:14.054Z,13.77
2022-09-12T00:30:46.405Z,13.76
2022-09-12T00:33:14.125Z,13.75
2022-09-12T00:35:42.867Z,13.74
2022-09-12T00:38:09.808Z,13.73
2022-09-12T00:40:36.802Z,13.73
2022-09-12T00:43:03.660Z,13.71
2022-09-12T00:45:31.510Z,13.66
2022-09-12T00:48:03.853Z,13.58
2022-09-12T00:50:32.775Z,13.59
2022-09-12T00:53:04.593Z,13.56
2022-09-12T00:55:43.878Z,13.55
2022-09-12T00:58:18.835Z,13.46
2022-09-12T01:00:47.431Z,13.49
2022-09-12T01:03:18.190Z,13.50
2022-09-12T01:05:52.509Z,13.44
2022-09-12T01:08:20.741Z,13.44
2022-09-12T01:10:48.391Z,13.39
2022-09-12T01:13:15.459Z,13.32
2022-09-12T01:15:42.483Z,13.26
2022-09-12T01:18:25.437Z,13.24
2022-09-12T01:21:23.171Z,13.21
2022-09-12T01:24:08.696Z,13.17
2022-09-12T01:26:51.320Z,13.15
2022-09-12T01:29:40.509Z,13.11
2022-09-12T01:32:13.073Z,13.09
2022-09-12T01:34:49.430Z,13.01
2022-09-12T01:37:43.099Z,13.03
2022-09-12T01:40:18.894Z,13.03
2022-09-12T01:42:53.061Z,12.99
2022-09-12T01:45:32.310Z,12.98
2022-09-12T01:48:22.812Z,12.96
2022-09-12T01:51:04.162Z,12.90
2022-09-12T01:53:36.910Z,12.92
2022-09-12T01:56:10.449Z,12.89
2022-09-12T01:58:50.281Z,12.88
2022-09-12T02:01:24.658Z,12.87
2022-09-12T02:04:00.466Z,12.85
2022-09-12T02:06:55.481Z,12.84
2022-09-12T02:09:27.549Z,12.86
2022-09-12T02:11:59.288Z,12.81
2022-09-12T02:14:30.605Z,12.81
2022-09-12T02:17:06.276Z,12.80
2022-09-12T02:19:47.487Z,12.78
2022-09-12T02:22:18.009Z,12.77
2022-09-12T02:24:48.125Z,12.76
2022-09-12T02:27:20.583Z,12.79
2022-09-12T02:29:48.669Z,12.76
2022-09-12T02:32:24.200Z,12.71
2022-09-12T02:35:20.601Z,12.66
2022-09-12T02:38:00.128Z,12.62
2022-09-12T02:40:27.221Z,12.55
2022-09-12T02:42:54.116Z,12.52
2022-09-12T02:45:22.991Z,12.48
2022-09-12T02:48:04.865Z,12.42
2022-09-12T02:50:32.182Z,12.40
2022-09-12T02:53:04.683Z,12.39
2022-09-12T02:55:33.997Z,12.41
2022-09-12T02:58:02.549Z,12.39
2022-09-12T03:00:35.341Z,12.38
2022-09-12T03:03:23.906Z,12.42
2022-09-12T03:05:58.218Z,12.40
2022-09-12T03:08:40.210Z,12.39
2022-09-12T03:11:17.964Z,12.37
2022-09-12T03:13:57.961Z,12.38
2022-09-12T03:16:49.673Z,12.29
2022-09-12T03:19:44.110Z,12.36
2022-09-12T03:22:15.912Z,12.35
2022-09-12T03:24:48.468Z,12.32
2022-09-12T03:27:25.539Z,12.32
2022-09-12T03:29:53.949Z,12.31
2022-09-12T03:32:20.777Z,12.28
2022-09-12T03:34:47.602Z,12.29
2022-09-12T03:37:14.489Z,12.28
2022-09-12T03:39:41.560Z,12.29
2022-09-12T03:42:08.505Z,12.30
2022-09-12T03:44:35.357Z,12.34
2022-09-12T03:47:02.190Z,12.36
2022-09-12T03:49:29.034Z,12.35
2022-09-12T03:51:55.813Z,12.36
2022-09-12T03:54:22.762Z,12.33
2022-09-12T03:56:49.626Z,12.33
2022-09-12T03:59:16.521Z,12.35
2022-09-12T04:01:43.422Z,12.34
2022-09-12T04:04:10.386Z,12.38
2022-09-12T04:06:37.389Z,12.36
2022-09-12T04:09:04.428Z,12.43
2022-09-12T04:11:32.425Z,12.40
2022-09-12T04:13:59.357Z,12.43
2022-09-12T04:16:26.219Z,12.47
2022-09-12T04:18:54.207Z,12.53
2022-09-12T04:21:22.346Z,12.61
2022-09-12T04:23:49.968Z,12.60
2022-09-12T04:26:18.415Z,12.66
2022-09-12T04:28:46.656Z,12.64
2022-09-12T04:31:20.186Z,12.75
2022-09-12T04:33:47.248Z,12.80
2022-09-12T04:36:17.267Z,12.83
2022-09-12T04:38:45.619Z,12.90
2022-09-12T04:41:14.650Z,12.95
2022-09-12T04:43:42.265Z,12.97
2022-09-12T04:46:12.328Z,13.00
2022-09-12T04:48:39.680Z,13.05
2022-09-12T04:51:12.558Z,13.11
2022-09-12T04:53:42.985Z,13.15
2022-09-12T04:56:11.614Z,13.22
2022-09-12T04:58:43.502Z,13.29
2022-09-12T05:01:14.085Z,13.36
2022-09-12T05:03:45.226Z,13.41
2022-09-12T05:06:15.701Z,13.43
2022-09-12T05:08:42.961Z,13.43
2022-09-12T05:11:21.529Z,13.48
2022-09-12T05:13:51.049Z,13.47
2022-09-12T05:16:19.280Z,13.59
2022-09-12T05:18:47.466Z,13.64
2022-09-12T05:21:17.379Z,13.72
2022-09-12T05:23:44.526Z,13.75
2022-09-12T05:26:16.693Z,13.78
2022-09-12T05:28:44.117Z,13.80
2022-09-12T05:31:20.233Z,13.80
2022-09-12T05:33:49.832Z,13.80
2022-09-12T05:36:22.437Z,13.77
2022-09-12T05:38:49.265Z,13.85
2022-09-12T05:41:23.016Z,13.91
2022-09-12T05:43:56.887Z,13.96
2022-09-12T05:46:26.197Z,14.05
2022-09-12T05:48:56.422Z,14.09
2022-09-12T05:51:28.867Z,14.27
2022-09-12T05:53:58.154Z,14.35
2022-09-12T05:56:26.549Z,14.39
2022-09-12T05:58:56.214Z,14.38
2022-09-12T06:01:23.553Z,14.45
2022-09-12T06:03:52.737Z,14.45
2022-09-12T06:06:21.804Z,14.45
2022-09-12T06:08:50.925Z,14.47
2022-09-12T06:11:22.165Z,14.47
2022-09-12T06:13:50.586Z,14.46
2022-09-12T06:16:22.887Z,14.51
2022-09-12T06:19:01.280Z,14.59
2022-09-12T06:21:28.985Z,14.71
2022-09-12T06:23:56.011Z,14.81
2022-09-12T06:26:25.751Z,14.87
2022-09-12T06:28:54.327Z,14.97
2022-09-12T06:31:25.335Z,15.04
2022-09-12T06:33:54.475Z,15.14
2022-09-12T06:36:22.645Z,15.24
2022-09-12T06:38:58.110Z,15.29
2022-09-12T06:41:25.809Z,15.30
2022-09-12T06:43:53.505Z,15.32
2022-09-12T06:46:21.321Z,15.35
2022-09-12T06:48:48.711Z,15.42
2022-09-12T06:51:18.091Z,15.51
2022-09-12T06:53:45.759Z,15.49
2022-09-12T06:56:19.396Z,15.56
2022-09-12T06:58:47.711Z,15.66
2022-09-12T07:01:19.151Z,15.73
2022-09-12T07:03:51.415Z,15.85
2022-09-12T07:06:20.513Z,15.77
2022-09-12T07:08:47.598Z,16.10
2022-09-12T07:11:17.464Z,16.16
2022-09-12T07:13:46.641Z,16.13
2022-09-12T07:16:18.699Z,16.17
2022-09-12T07:18:51.221Z,16.34
2022-09-12T07:21:18.106Z,16.50
2022-09-12T07:23:45.720Z,16.54
2022-09-12T07:26:14.412Z,16.62
2022-09-12T07:28:42.104Z,16.63
2022-09-12T07:31:15.081Z,16.54
2022-09-12T07:33:42.698Z,16.60
2022-09-12T07:36:13.099Z,16.70
2022-09-12T07:38:40.256Z,16.68
2022-09-12T07:41:15.332Z,16.68
2022-09-12T07:43:42.273Z,16.64
2022-09-12T07:46:10.225Z,16.69
2022-09-12T07:48:41.167Z,16.74
2022-09-12T07:51:10.427Z,16.79
2022-09-12T07:53:41.845Z,16.80
2022-09-12T07:56:11.021Z,16.85
2022-09-12T07:58:40.681Z,16.89
2022-09-12T08:01:15.758Z,17.03
2022-09-12T08:03:44.460Z,16.99
2022-09-12T08:06:16.279Z,17.00
2022-09-12T08:08:43.834Z,16.95
2022-09-12T08:11:14.204Z,16.81
2022-09-12T08:13:43.267Z,16.72
2022-09-12T08:16:14.514Z,16.72
2022-09-12T08:18:42.084Z,16.79
2022-09-12T08:21:13.613Z,16.90
2022-09-12T08:23:40.782Z,17.01
2022-09-12T08:26:07.752Z,17.16
2022-09-12T08:28:36.077Z,17.37
2022-09-12T08:31:04.925Z,17.49
2022-09-12T08:33:33.325Z,17.70
2022-09-12T08:36:11.917Z,17.88
2022-09-12T08:38:41.722Z,17.95
2022-09-12T08:41:35.175Z,18.03
2022-09-12T08:44:29.546Z,17.96
2022-09-12T08:47:17.568Z,18.08
2022-09-12T08:50:12.429Z,18.16
2022-09-12T08:52:52.091Z,18.28
2022-09-12T08:55:27.668Z,18.26
2022-09-12T08:57:54.752Z,18.17
2022-09-12T09:00:22.175Z,18.33
2022-09-12T09:03:10.235Z,18.46
2022-09-12T09:05:51.498Z,18.71
2022-09-12T09:08:52.249Z,18.86
2022-09-12T09:11:36.704Z,18.81
2022-09-12T09:14:40.595Z,18.76
2022-09-12T09:17:20.694Z,18.75
2022-09-12T09:19:59.034Z,18.85
2022-09-12T09:22:32.402Z,18.98
2022-09-12T09:25:23.005Z,19.16
2022-09-12T09:27:58.789Z,19.36
2022-09-12T09:30:25.663Z,19.23
2022-09-12T09:32:56.994Z,19.21
2022-09-12T09:35:43.785Z,19.50
2022-09-12T09:38:16.709Z,19.64
2022-09-12T09:41:32.898Z,19.60
2022-09-12T09:44:01.110Z,19.52
2022-09-12T09:46:28.350Z,19.59
2022-09-12T09:48:59.402Z,19.68
2022-09-12T09:51:34.268Z,19.55
2022-09-12T09:54:13.689Z,19.48
2022-09-12T09:56:42.702Z,19.61
2022-09-12T09:59:21.017Z,19.66
2022-09-12T10:01:58.958Z,19.53
2022-09-12T10:04:28.231Z,19.43
2022-09-12T10:06:58.525Z,19.53
2022-09-12T10:09:28.705Z,19.74
2022-09-12T10:11:57.461Z,19.86
2022-09-12T10:14:39.933Z,19.86
2022-09-12T10:17:33.842Z,19.91
2022-09-12T10:20:20.458Z,20.05
2022-09-12T10:22:49.351Z,20.25
2022-09-12T10:25:19.865Z,20.17
2022-09-12T10:27:53.854Z,19.96
2022-09-12T10:30:25.150Z,19.86
2022-09-12T10:32:52.250Z,19.67
2022-09-12T10:35:24.919Z,19.75
2022-09-12T10:38:04.948Z,19.76
2022-09-12T10:40:44.161Z,19.86
2022-09-12T10:43:26.389Z,19.71
2022-09-12T10:45:58.540Z,19.57
2022-09-12T10:48:30.590Z,19.49
2022-09-12T10:50:58.765Z,19.48
2022-09-12T10:53:35.349Z,19.45
2022-09-12T10:56:13.071Z,19.48
2022-09-12T10:58:53.808Z,19.50
2022-09-12T11:01:47.321Z,19.52
2022-09-12T11:04:34.571Z,19.51
2022-09-12T11:07:19.769Z,19.33
2022-09-12T11:10:02.744Z,19.20
2022-09-12T11:12:49.178Z,19.40
2022-09-12T11:15:38.072Z,19.42
2022-09-12T11:18:23.615Z,19.45
2022-09-12T11:21:05.511Z,19.53
2022-09-12T11:24:09.857Z,19.65
2022-09-12T11:26:52.236Z,19.92
2022-09-12T11:29:34.343Z,20.16
2022-09-12T11:32:32.817Z,20.40
2022-09-12T11:35:17.231Z,20.49
2022-09-12T11:37:57.398Z,20.49
2022-09-12T11:40:30.254Z,20.56
2022-09-12T11:43:09.544Z,20.76
2022-09-12T11:45:42.664Z,20.59
2022-09-12T11:48:19.629Z,20.54
2022-09-12T11:50:46.535Z,20.47
2022-09-12T11:53:20.348Z,20.36
2022-09-12T11:56:12.294Z,20.37
2022-09-12T11:58:42.508Z,20.19
2022-09-12T12:01:15.406Z,20.32
2022-09-12T12:03:46.318Z,20.43
2022-09-12T12:06:25.893Z,20.53
2022-09-12T12:08:53.377Z,20.73
2022-09-12T12:11:31.275Z,20.56
2022-09-12T12:14:05.540Z,20.23
2022-09-12T12:16:33.891Z,20.30
2022-09-12T12:19:04.790Z,20.17
2022-09-12T12:21:44.421Z,19.93
2022-09-12T12:24:34.017Z,19.64
2022-09-12T12:27:44.316Z,19.79
2022-09-12T12:30:29.595Z,19.92
2022-09-12T12:33:13.349Z,20.20
2022-09-12T12:36:04.804Z,20.33
2022-09-12T12:38:41.538Z,20.10
2022-09-12T12:41:17.445Z,20.01
2022-09-12T12:43:48.894Z,19.72
2022-09-12T12:46:18.040Z,19.52
2022-09-12T12:49:00.156Z,19.32
2022-09-12T12:51:45.204Z,19.36
2022-09-12T12:54:32.299Z,19.35
2022-09-12T12:57:23.191Z,19.26
2022-09-12T13:00:25.336Z,19.24
2022-09-12T13:03:07.270Z,19.06
2022-09-12T13:05:47.452Z,18.93
2022-09-12T13:08:17.024Z,18.88
2022-09-12T13:11:28.009Z,18.77
2022-09-12T13:14:07.213Z,18.73
2022-09-12T13:16:37.776Z,18.65
2022-09-12T13:19:19.523Z,18.67
2022-09-12T13:22:01.636Z,18.99
2022-09-12T13:24:29.263Z,18.97
2022-09-12T13:26:57.910Z,19.04
2022-09-12T13:29:27.205Z,19.07
2022-09-12T13:32:00.932Z,19.13
2022-09-12T13:34:37.515Z,19.22
2022-09-12T13:37:22.806Z,19.33
2022-09-12T13:39:55.647Z,19.53
2022-09-12T13:42:42.725Z,19.75
2022-09-12T13:45:15.398Z,19.94
2022-09-12T13:47:58.690Z,20.19
2022-09-12T13:50:33.269Z,20.23
2022-09-12T13:53:07.390Z,20.11
2022-09-12T13:55:39.409Z,19.95
2022-09-12T13:58:30.807Z,19.52
2022-09-12T14:01:14.076Z,19.38
2022-09-12T14:04:15.605Z,19.57
2022-09-12T14:06:51.916Z,19.81
2022-09-12T14:09:38.691Z,19.86
2022-09-12T14:12:25.395Z,19.96
2022-09-12T14:14:58.065Z,20.02
2022-09-12T14:17:32.565Z,20.31
2022-09-12T14:20:02.212Z,20.21
2022-09-12T14:22:30.644Z,19.97
2022-09-12T14:24:59.724Z,19.64
2022-09-12T14:27:29.306Z,19.42
2022-09-12T14:30:07.644Z,19.06
2022-09-12T14:32:35.660Z,18.92
2022-09-12T14:35:12.677Z,18.78
2022-09-12T14:37:40.442Z,18.68
2022-09-12T14:40:20.016Z,18.59
2022-09-12T14:42:52.932Z,18.41
2022-09-12T14:45:32.293Z,18.38
2022-09-12T14:48:00.265Z,18.41
2022-09-12T14:50:35.136Z,18.38
2022-09-12T14:53:24.266Z,18.43
2022-09-12T14:55:57.726Z,18.55
2022-09-12T14:58:29.160Z,18.61
2022-09-12T15:01:16.699Z,18.53
2022-09-12T15:03:49.291Z,18.52
2022-09-12T15:06:33.179Z,18.33
2022-09-12T15:09:06.119Z,18.22
2022-09-12T15:11:33.977Z,18.14
2022-09-12T15:14:13.345Z,18.03
2022-09-12T15:16:40.342Z,17.89
2022-09-12T15:19:07.376Z,17.80
2022-09-12T15:21:34.521Z,17.67
2022-09-12T15:24:01.452Z,17.72
2022-09-12T15:26:30.707Z,17.69
2022-09-12T15:28:58.189Z,17.65
2022-09-12T15:31:30.903Z,17.68
2022-09-12T15:34:00.529Z,17.59
2022-09-12T15:36:29.044Z,17.55
2022-09-12T15:38:56.379Z,17.49
2022-09-12T15:41:29.787Z,17.49
2022-09-12T15:43:57.381Z,17.45
2022-09-12T15:46:24.420Z,17.40
2022-09-12T15:48:51.397Z,17.37
2022-09-12T15:51:21.414Z,17.30
2022-09-12T15:53:50.334Z,17.27
2022-09-12T15:56:19.283Z,17.25
2022-09-12T15:58:58.121Z,17.24
2022-09-12T16:01:26.062Z,17.22
2022-09-12T16:03:52.992Z,17.23
2022-09-12T16:06:19.875Z,17.23
2022-09-12T16:08:46.881Z,17.23
2022-09-12T16:11:27.458Z,17.26
2022-09-12T16:13:58.025Z,17.28
2022-09-12T16:16:25.451Z,17.28
2022-09-12T16:18:52.943Z,17.27
2022-09-12T16:21:19.904Z,17.26
2022-09-12T16:23:48.114Z,17.27
2022-09-12T16:26:15.928Z,17.26
2022-09-12T16:28:43.437Z,17.23
2022-09-12T16:31:12.682Z,17.20
2022-09-12T16:33:40.757Z,17.21
2022-09-12T16:36:09.972Z,17.19
2022-09-12T16:38:44.722Z,17.15
2022-09-12T16:41:12.079Z,17.09
2022-09-12T16:43:39.561Z,17.03
2022-09-12T16:46:10.038Z,17.01
2022-09-12T16:48:38.158Z,16.94
2022-09-12T16:51:07.597Z,16.95
2022-09-12T16:53:37.280Z,16.90
2022-09-12T16:56:05.612Z,16.82
2022-09-12T16:58:35.613Z,16.78
2022-09-12T17:01:25.688Z,16.75
2022-09-12T17:03:55.362Z,16.70
2022-09-12T17:06:22.834Z,16.65
2022-09-12T17:08:52.077Z,16.55
2022-09-12T17:11:21.543Z,16.56
2022-09-12T17:14:04.533Z,16.50
2022-09-12T17:16:38.479Z,16.48
2022-09-12T17:19:06.514Z,16.45
2022-09-12T17:21:34.326Z,16.46
2022-09-12T17:24:01.368Z,16.43
2022-09-12T17:26:28.254Z,16.36
2022-09-12T17:28:55.252Z,16.40
2022-09-12T17:31:22.146Z,16.43
2022-09-12T17:33:49.598Z,16.45
2022-09-12T17:36:18.054Z,16.47
2022-09-12T17:38:46.153Z,16.39
2022-09-12T17:41:17.899Z,16.36
2022-09-12T17:43:46.614Z,16.28
2022-09-12T17:46:14.395Z,16.28
2022-09-12T17:51:16.482Z,16.22
2022-09-12T17:53:43.638Z,16.20
2022-09-12T17:56:12.135Z,16.12
2022-09-12T17:58:39.112Z,16.04
2022-09-12T18:01:31.775Z,16.02
2022-09-12T18:04:00.756Z,15.90
2022-09-12T18:06:28.904Z,15.86
2022-09-12T18:08:56.170Z,15.86
2022-09-12T18:11:23.067Z,15.82
2022-09-12T18:13:50.694Z,15.76
2022-09-12T18:16:17.853Z,15.71
2022-09-12T18:18:44.797Z,15.69
2022-09-12T18:21:12.298Z,15.61
2022-09-12T18:23:39.451Z,15.66
2022-09-12T18:26:08.688Z,15.63
2022-09-12T18:28:38.050Z,15.63
2022-09-12T18:31:09.642Z,15.58
2022-09-12T18:33:36.701Z,15.63
2022-09-12T18:36:08.352Z,15.56
2022-09-12T18:38:35.923Z,15.54
2022-09-12T18:41:04.853Z,15.55
2022-09-12T18:43:32.709Z,15.48
2022-09-12T18:46:21.497Z,15.50
2022-09-12T18:48:48.783Z,15.47
2022-09-12T18:51:21.787Z,15.43
2022-09-12T18:53:52.237Z,15.44
2022-09-12T18:56:20.530Z,15.36
2022-09-12T18:58:52.423Z,15.35
2022-09-12T19:01:27.861Z,15.32
2022-09-12T19:03:57.153Z,15.29
2022-09-12T19:06:25.184Z,15.29
2022-09-12T19:08:53.638Z,15.26
2022-09-12T19:11:21.708Z,15.27
2022-09-12T19:13:51.373Z,15.24
2022-09-12T19:16:20.710Z,15.25
2022-09-12T19:18:50.905Z,15.28
2022-09-12T19:21:22.373Z,15.31
2022-09-12T19:23:49.674Z,15.33
2022-09-12T19:26:18.356Z,15.31
2022-09-12T19:28:45.791Z,15.32
2022-09-12T19:31:15.003Z,15.35
2022-09-12T19:33:42.514Z,15.33
2022-09-12T19:36:27.695Z,15.37
2022-09-12T19:39:00.274Z,15.38
2022-09-12T19:41:27.161Z,15.41
2022-09-12T19:43:56.359Z,15.40
2022-09-12T19:46:24.336Z,15.39
2022-09-12T19:48:52.694Z,15.38
2022-09-12T19:51:21.455Z,15.36
2022-09-12T19:53:50.353Z,15.34
2022-09-12T19:56:20.692Z,15.35
2022-09-12T19:58:52.268Z,15.37
2022-09-12T20:01:28.264Z,15.34
2022-09-12T20:03:56.503Z,15.30
2022-09-12T20:06:23.595Z,15.28
2022-09-12T20:08:50.618Z,15.30
2022-09-12T20:11:19.876Z,15.32
2022-09-12T20:13:47.219Z,15.33
2022-09-12T20:16:26.592Z,15.32
2022-09-12T20:18:55.955Z,15.28
2022-09-12T20:21:31.955Z,15.27
2022-09-12T20:24:08.453Z,15.24
2022-09-12T20:26:35.902Z,15.19
2022-09-12T20:29:03.830Z,15.12
2022-09-12T20:31:31.283Z,15.05
2022-09-12T20:33:58.236Z,14.99
2022-09-12T20:36:25.975Z,14.96
2022-09-12T20:38:57.050Z,14.92
2022-09-12T20:41:25.281Z,14.84
2022-09-12T20:43:53.689Z,14.76
2022-09-12T20:46:22.542Z,14.77
2022-09-12T20:48:51.312Z,14.71
2022-09-12T20:51:19.633Z,14.66
2022-09-12T20:53:47.163Z,14.62
2022-09-12T20:56:15.226Z,14.57
2022-09-12T20:58:44.429Z,14.52
2022-09-12T21:01:13.703Z,14.48
2022-09-12T21:03:42.336Z,14.46
2022-09-12T21:06:10.610Z,14.45
2022-09-12T21:08:37.643Z,14.42
2022-09-12T21:11:05.742Z,14.39
2022-09-12T21:13:33.006Z,14.38
2022-09-12T21:16:01.182Z,14.34
2022-09-12T21:18:28.314Z,14.31
2022-09-12T21:20:56.192Z,14.30
2022-09-12T21:23:24.949Z,14.24
2022-09-12T21:25:52.785Z,14.19
2022-09-12T21:28:21.028Z,14.21
2022-09-12T21:30:49.241Z,14.15
2022-09-12T21:33:16.661Z,14.16
2022-09-12T21:35:43.477Z,14.11
2022-09-12T21:38:11.262Z,14.13
2022-09-12T21:40:38.119Z,14.05
2022-09-12T21:43:08.117Z,14.05
2022-09-12T21:45:37.398Z,13.98
2022-09-12T21:48:04.384Z,13.89
2022-09-12T21:50:31.360Z,13.91
2022-09-12T21:52:58.208Z,13.88
2022-09-12T21:55:27.346Z,13.85
2022-09-12T21:57:55.217Z,13.82
2022-09-12T22:00:22.888Z,13.83
2022-09-12T22:02:50.016Z,13.81
2022-09-12T22:05:17.468Z,13.81
2022-09-12T22:07:44.862Z,13.74
2022-09-12T22:10:11.790Z,13.64
2022-09-12T22:12:42.844Z,13.68
2022-09-12T22:15:36.276Z,13.61
2022-09-12T22:17:59.940Z,13.59
2022-09-12T22:20:26.825Z,13.55
2022-09-12T22:23:12.259Z,13.50
2022-09-12T22:25:39.936Z,13.48
2022-09-12T22:28:07.240Z,13.45
2022-09-12T22:30:34.157Z,13.46
2022-09-12T22:33:01.231Z,13.45
2022-09-12T22:35:28.277Z,13.44
2022-09-12T22:37:55.160Z,13.45
2022-09-12T22:40:22.066Z,13.46
2022-09-12T22:42:52.458Z,13.44
2022-09-12T22:45:20.077Z,13.43
2022-09-12T22:47:47.083Z,13.45
2022-09-12T22:50:15.977Z,13.42
2022-09-12T22:52:43.020Z,13.42
2022-09-12T22:55:10.564Z,13.40
2022-09-12T22:57:37.939Z,13.41
2022-09-12T23:00:08.799Z,13.36
2022-09-12T23:02:35.695Z,13.35
2022-09-12T23:05:02.837Z,13.29
2022-09-12T23:07:29.718Z,13.30
2022-09-12T23:09:56.591Z,13.27
2022-09-12T23:12:23.506Z,13.25
2022-09-12T23:14:50.436Z,13.23
2022-09-12T23:17:17.323Z,13.19
2022-09-12T23:19:44.292Z,13.19
2022-09-12T23:22:11.200Z,13.15
2022-09-12T23:24:38.526Z,13.15
2022-09-12T23:27:06.230Z,13.12
2022-09-12T23:29:35.522Z,13.13
2022-09-12T23:32:03.206Z,13.16
2022-09-12T23:34:30.070Z,13.04
2022-09-12T23:36:57.010Z,13.15
2022-09-12T23:39:24.290Z,13.09
2022-09-12T23:41:51.657Z,13.09
2022-09-12T23:44:18.661Z,13.12
2022-09-12T23:46:45.510Z,13.12
2022-09-12T23:49:12.463Z,13.13
2022-09-12T23:51:39.872Z,13.15
2022-09-12T23:54:06.815Z,13.16
2022-09-12T23:56:33.860Z,13.20
2022-09-12T23:59:00.742Z,13.20
